Richland Airport

About
Name: Richland Airport
Identifier:  RLD/KRLD
Local Time:  17. Aug 22:03 PDT
Location
Flights per Day
0 flights
Distance: 15km (9mi)
Punctuality
0% (0 flights per day delayed)
Delay Average: 81 minutes
Current Weather
 24 C (Humidity: 44%)
  5kt (9km/h / 5mph) from 200°
  16km (10 mi.)
 
 METAR KRLD 180435Z AUTO 20005KT 10SM CLR 24/11 A2976 RMK AO2 T02430107

Current Flights

Departures
Number Departure To Airline
Arrivals
Number Arrival From Airline

Current Delays

Departures
N/A
Arrivals
N/A

Destinations

Top Destinations
Airport Flights
per week
Seats
per week
  Pasco (PSC) 2 - 0 0
  Bremerton (PWT) 0 - 0 0
  Yakima (YKM) 0 - 0 0
  Everett (PAE) 0 - 0 0
  Seattle (BFI) 0 - 0 0
  The Dalles (DLS) 0 - 0 0
  Napa (APC) 0 - 0 0

Airlines & Planes

Top Airlines
Airline Flights
per Day
Seats
per Day
  Flybe Nordic 0 -
Jet Charter Inc ( Franklin Lakes Nj ) 0 -
Gama Aviation 0 -
  Novair 0 -
Top Plane Types
Model Flights Seats
Beech E90 King Air 0.3/day - 0
Beech B300 Super King Air 350 0.1/day - 0
Cessna C150 0.1/day - 0